Honey Grove, Pennsylvania
Current Conditions -  °F | °C
As of 1:15 AM on Wednesday 26 Nov 2014 (Local Time) from KUNV Reporting Station
Clear Clear  
Wind Chill: 32°   Ceiling: Unl
Heat Index: 32°   Visibility: 10mi
Dew Point: 27°   Wind: 0mph
Humidity: 80%   Direction: NA
Pressure: 30.18"   Gusts: NA
Location:  40.4°N, 77.55°W
Report Text: KUNV 260615Z AUTO 00000KT 10SM CLR 00/M03 A3018 RMK AO2 T00011030
Loading
Personal Weather Stations






























Interactive Weather Map New forecast layout! Learn more

10-Day Weather Forecast

Advertisements
Track Severe Weather on mobile